Time;durP1;ratioP1;P1;durP2;ratioP2;P2;SDS_P1;SDS_P2;PMS_P1;PMS_P2;Temp;Humidity;BMP_temperature;BMP_pressure;BME280_temperature;BME280_humidity;BME280_pressure;Samples;Min_cycle;Max_cycle;Signal;HPM_P1;HPM_P2
2021/08/05 00:00:22;;;;;;;5.93;3.35;;;;;;;;;;5094776;28;20180;-47
2021/08/05 00:02:48;;;;;;;8.38;3.60;;;;;;;;;;5079362;28;20260;-47
2021/08/05 00:05:14;;;;;;;3.95;3.60;;;;;;;;;;5114940;28;20188;-47
2021/08/05 00:07:40;;;;;;;7.00;4.13;;;;;;;;;;5111457;28;20170;-47
2021/08/05 00:10:06;;;;;;;3.22;2.92;;;;;;;;;;5107841;28;20300;-47
2021/08/05 00:12:32;;;;;;;4.25;3.17;;;;;;;;;;5078177;28;20210;-47
2021/08/05 00:14:58;;;;;;;6.10;3.05;;;;;;;;;;5085181;28;20182;-47
2021/08/05 00:17:24;;;;;;;4.05;3.10;;;;;;;;;;5092742;28;20157;-47
2021/08/05 00:19:50;;;;;;;3.70;3.10;;;;;;;;;;5082199;28;20559;-47
2021/08/05 00:22:16;;;;;;;4.00;2.80;;;;;;;;;;5095208;28;20185;-47
2021/08/05 00:24:42;;;;;;;3.53;2.92;;;;;;;;;;5107501;28;20454;-47
2021/08/05 00:27:08;;;;;;;5.57;2.67;;;;;;;;;;5094544;28;20500;-47
2021/08/05 00:29:34;;;;;;;5.78;3.28;;;;;;;;;;5092454;28;20184;-47
2021/08/05 00:32:00;;;;;;;4.38;3.00;;;;;;;;;;5094113;28;20446;-47
2021/08/05 00:34:26;;;;;;;4.90;2.83;;;;;;;;;;5100662;28;20169;-47
2021/08/05 00:36:52;;;;;;;3.38;2.47;;;;;;;;;;5115379;28;20225;-47
2021/08/05 00:39:18;;;;;;;6.45;2.75;;;;;;;;;;5102199;28;20518;-47
2021/08/05 00:41:44;;;;;;;5.43;2.83;;;;;;;;;;5092275;28;20178;-48
2021/08/05 00:44:10;;;;;;;4.07;3.33;;;;;;;;;;5094889;28;20176;-47
2021/08/05 00:46:36;;;;;;;4.53;2.63;;;;;;;;;;5094326;28;20185;-47
2021/08/05 00:49:02;;;;;;;4.32;2.85;;;;;;;;;;5080677;28;20235;-47
2021/08/05 00:51:29;;;;;;;3.75;2.90;;;;;;;;;;5091929;28;20201;-47
2021/08/05 00:53:55;;;;;;;4.32;2.70;;;;;;;;;;5106456;28;20212;-47
2021/08/05 00:56:21;;;;;;;5.10;3.03;;;;;;;;;;5094530;28;20182;-47
2021/08/05 00:58:47;;;;;;;6.28;3.03;;;;;;;;;;5092835;28;20178;-49
2021/08/05 01:01:20;;;;;;;5.75;3.42;;;;;;;;;;5083674;28;20572;-47
2021/08/05 01:03:49;;;;;;;5.22;2.50;;;;;;;;;;5101590;28;20184;-47
2021/08/05 01:06:26;;;;;;;3.40;2.80;;;;;;;;;;5097972;28;20196;-47
2021/08/05 01:08:59;;;;;;;5.05;2.60;;;;;;;;;;5098796;28;20177;-47
2021/08/05 01:11:28;;;;;;;3.17;2.88;;;;;;;;;;5100033;28;20197;-47
2021/08/05 01:13:54;;;;;;;3.35;2.63;;;;;;;;;;5093330;28;20175;-47
2021/08/05 01:16:22;;;;;;;3.85;2.95;;;;;;;;;;5094730;28;20162;-47
2021/08/05 01:18:48;;;;;;;3.55;2.50;;;;;;;;;;5083249;28;20212;-47
2021/08/05 01:21:20;;;;;;;3.90;3.20;;;;;;;;;;5074286;28;20534;-47
2021/08/05 01:24:01;;;;;;;4.18;2.78;;;;;;;;;;5089418;28;20196;-47
2021/08/05 01:26:30;;;;;;;5.15;2.80;;;;;;;;;;5087027;28;20207;-47
2021/08/05 01:28:56;;;;;;;4.43;2.72;;;;;;;;;;5087196;28;20245;-47
2021/08/05 01:31:23;;;;;;;4.18;2.67;;;;;;;;;;5078163;28;20581;-47
2021/08/05 01:33:50;;;;;;;4.07;2.67;;;;;;;;;;5082817;28;20169;-47
2021/08/05 01:36:16;;;;;;;4.97;2.50;;;;;;;;;;5106366;28;20174;-47
2021/08/05 01:38:42;;;;;;;5.80;2.83;;;;;;;;;;5098357;28;20249;-47
2021/08/05 01:41:09;;;;;;;6.70;2.70;;;;;;;;;;5098291;28;20460;-47
2021/08/05 01:43:36;;;;;;;4.25;2.45;;;;;;;;;;5097724;28;20170;-47
2021/08/05 01:46:03;;;;;;;4.15;2.90;;;;;;;;;;5095622;28;20541;-47
2021/08/05 01:48:29;;;;;;;3.53;2.53;;;;;;;;;;5096718;28;20250;-47
2021/08/05 01:50:56;;;;;;;3.78;2.92;;;;;;;;;;5098078;28;20446;-47
2021/08/05 01:53:22;;;;;;;5.93;2.80;;;;;;;;;;5112224;28;20536;-47
2021/08/05 01:55:48;;;;;;;2.88;2.58;;;;;;;;;;5089499;28;20427;-47
2021/08/05 01:58:14;;;;;;;4.47;2.70;;;;;;;;;;5083150;28;20182;-47
2021/08/05 02:00:40;;;;;;;4.70;2.90;;;;;;;;;;5081055;28;20203;-47
2021/08/05 02:03:09;;;;;;;4.82;2.58;;;;;;;;;;5080317;28;20218;-47
2021/08/05 02:05:44;;;;;;;5.22;2.47;;;;;;;;;;5113655;28;20181;-47
2021/08/05 02:08:11;;;;;;;4.18;2.50;;;;;;;;;;5099807;28;20255;-47
2021/08/05 02:10:41;;;;;;;5.85;3.28;;;;;;;;;;5097145;28;20257;-47
2021/08/05 02:13:11;;;;;;;5.43;2.67;;;;;;;;;;5091633;28;20233;-47
2021/08/05 02:15:37;;;;;;;2.80;2.60;;;;;;;;;;5093314;28;20230;-47
2021/08/05 02:18:04;;;;;;;6.88;2.75;;;;;;;;;;5089681;28;20185;-47
2021/08/05 02:20:30;;;;;;;3.72;2.47;;;;;;;;;;5077229;28;20170;-47
2021/08/05 02:22:56;;;;;;;3.55;2.40;;;;;;;;;;5093054;28;20182;-47
2021/08/05 02:25:22;;;;;;;3.33;2.38;;;;;;;;;;5099954;28;20316;-47
2021/08/05 02:27:49;;;;;;;3.55;2.65;;;;;;;;;;5095354;28;20565;-47
2021/08/05 02:30:15;;;;;;;2.72;2.40;;;;;;;;;;5090005;28;20196;-47
2021/08/05 02:32:41;;;;;;;3.58;2.58;;;;;;;;;;5097386;28;20213;-47
2021/08/05 02:35:09;;;;;;;3.50;2.70;;;;;;;;;;5108839;28;20201;-47
2021/08/05 02:37:35;;;;;;;6.05;2.80;;;;;;;;;;5104000;28;20188;-47
2021/08/05 02:40:01;;;;;;;4.60;2.60;;;;;;;;;;5108839;28;20202;-47
2021/08/05 02:42:27;;;;;;;4.95;2.67;;;;;;;;;;5085883;28;20174;-47
2021/08/05 02:44:55;;;;;;;2.75;2.50;;;;;;;;;;5087093;28;20174;-47
2021/08/05 02:47:21;;;;;;;4.55;2.70;;;;;;;;;;5085183;28;20227;-48
2021/08/05 02:49:47;;;;;;;9.35;2.95;;;;;;;;;;5091161;28;20279;-47
2021/08/05 02:52:13;;;;;;;2.85;2.50;;;;;;;;;;5117184;28;20196;-47
2021/08/05 02:54:40;;;;;;;3.08;2.40;;;;;;;;;;5103957;28;20425;-47
2021/08/05 02:57:06;;;;;;;3.10;2.30;;;;;;;;;;5093472;28;20628;-47
2021/08/05 02:59:32;;;;;;;3.03;2.00;;;;;;;;;;5086385;28;20182;-47
2021/08/05 03:01:59;;;;;;;2.75;2.55;;;;;;;;;;5097379;28;20358;-47
2021/08/05 03:04:30;;;;;;;5.50;2.47;;;;;;;;;;5115056;28;20230;-47
2021/08/05 03:06:56;;;;;;;6.85;2.60;;;;;;;;;;5108069;28;20177;-47
2021/08/05 03:09:22;;;;;;;3.00;2.28;;;;;;;;;;5099132;28;20572;-47
2021/08/05 03:11:48;;;;;;;2.47;2.28;;;;;;;;;;5088156;28;20202;-47
2021/08/05 03:14:14;;;;;;;2.85;2.08;;;;;;;;;;5091929;28;20175;-47
2021/08/05 03:16:40;;;;;;;3.13;2.55;;;;;;;;;;5080915;28;20174;-47
2021/08/05 03:19:06;;;;;;;6.22;2.47;;;;;;;;;;5087127;28;20181;-47
2021/08/05 03:21:32;;;;;;;6.40;2.50;;;;;;;;;;5096832;28;20254;-47
2021/08/05 03:23:58;;;;;;;2.47;2.28;;;;;;;;;;5102925;28;20642;-47
2021/08/05 03:26:24;;;;;;;5.60;2.50;;;;;;;;;;5098898;28;20182;-47
2021/08/05 03:28:50;;;;;;;5.40;2.70;;;;;;;;;;5084356;28;20605;-47
2021/08/05 03:31:16;;;;;;;4.38;2.45;;;;;;;;;;5077250;28;20171;-47
2021/08/05 03:33:42;;;;;;;6.43;2.50;;;;;;;;;;5115640;28;20321;-47
2021/08/05 03:36:08;;;;;;;4.30;2.42;;;;;;;;;;5100055;28;20177;-47
2021/08/05 03:38:34;;;;;;;2.88;2.45;;;;;;;;;;5086697;28;20193;-47
2021/08/05 03:41:01;;;;;;;5.07;2.22;;;;;;;;;;5104628;28;20170;-47
2021/08/05 03:43:27;;;;;;;3.42;2.88;;;;;;;;;;5095947;28;20180;-47
2021/08/05 03:45:53;;;;;;;5.18;2.78;;;;;;;;;;5077515;28;20371;-47
2021/08/05 03:48:20;;;;;;;3.40;2.20;;;;;;;;;;5075947;28;20183;-47
2021/08/05 03:50:46;;;;;;;2.53;2.20;;;;;;;;;;5075394;28;20175;-47
2021/08/05 03:53:12;;;;;;;2.60;2.40;;;;;;;;;;5096720;28;20194;-47
2021/08/05 03:55:37;;;;;;;5.93;2.30;;;;;;;;;;5096967;28;20542;-47
2021/08/05 03:58:06;;;;;;;5.82;2.92;;;;;;;;;;5075632;28;20182;-47
2021/08/05 04:00:32;;;;;;;4.60;2.70;;;;;;;;;;5090771;28;20615;-47
2021/08/05 04:02:58;;;;;;;4.20;2.47;;;;;;;;;;5099732;28;20256;-47
2021/08/05 04:05:24;;;;;;;5.25;2.80;;;;;;;;;;5103528;28;20266;-47
2021/08/05 04:07:50;;;;;;;6.82;2.80;;;;;;;;;;5094188;28;20202;-47
2021/08/05 04:10:16;;;;;;;2.25;2.10;;;;;;;;;;5102778;28;20209;-47
2021/08/05 04:12:42;;;;;;;5.07;2.80;;;;;;;;;;5095367;28;20463;-47
2021/08/05 04:15:09;;;;;;;2.58;1.80;;;;;;;;;;5083286;28;20182;-47
2021/08/05 04:17:35;;;;;;;3.95;2.38;;;;;;;;;;5075174;28;20230;-47
2021/08/05 04:20:01;;;;;;;2.90;2.53;;;;;;;;;;5084685;28;20185;-47
2021/08/05 04:22:27;;;;;;;5.25;2.95;;;;;;;;;;5095031;28;20413;-47
2021/08/05 04:24:53;;;;;;;4.03;2.70;;;;;;;;;;5107398;28;20571;-47
2021/08/05 04:27:19;;;;;;;4.72;2.60;;;;;;;;;;5087399;28;20455;-47
2021/08/05 04:29:45;;;;;;;7.22;2.63;;;;;;;;;;5083518;28;20182;-47
2021/08/05 04:32:11;;;;;;;2.42;2.22;;;;;;;;;;5101960;28;20209;-47
2021/08/05 04:34:37;;;;;;;4.68;2.60;;;;;;;;;;5106080;28;20177;-47
2021/08/05 04:37:03;;;;;;;2.85;2.28;;;;;;;;;;5097671;28;20534;-47
2021/08/05 04:39:29;;;;;;;11.73;2.70;;;;;;;;;;5095478;28;20205;-47
2021/08/05 04:41:55;;;;;;;4.70;2.50;;;;;;;;;;5094893;28;20536;-47
2021/08/05 04:44:21;;;;;;;2.58;2.38;;;;;;;;;;5094906;28;20178;-47
2021/08/05 04:46:47;;;;;;;3.05;2.75;;;;;;;;;;5093452;28;20185;-47
2021/08/05 04:49:13;;;;;;;2.70;2.50;;;;;;;;;;5099023;28;20169;-47
2021/08/05 04:51:39;;;;;;;3.90;2.22;;;;;;;;;;5114911;28;20209;-47
2021/08/05 04:54:05;;;;;;;4.75;2.80;;;;;;;;;;5106942;28;20181;-46
2021/08/05 04:56:31;;;;;;;4.55;3.22;;;;;;;;;;5087345;28;20174;-47
2021/08/05 04:58:57;;;;;;;4.00;2.97;;;;;;;;;;5084468;28;20174;-47
2021/08/05 05:01:23;;;;;;;3.10;2.80;;;;;;;;;;5083254;28;20208;-47
2021/08/05 05:03:49;;;;;;;2.80;2.60;;;;;;;;;;5087812;28;20189;-47
2021/08/05 05:06:16;;;;;;;2.63;2.38;;;;;;;;;;5085967;28;20182;-47
2021/08/05 05:08:42;;;;;;;2.90;2.60;;;;;;;;;;5102669;28;20189;-47
2021/08/05 05:11:08;;;;;;;3.35;2.60;;;;;;;;;;5105838;28;20242;-47
2021/08/05 05:13:34;;;;;;;3.22;2.70;;;;;;;;;;5098129;28;20198;-47
2021/08/05 05:16:00;;;;;;;5.22;2.50;;;;;;;;;;5089634;28;20178;-47
2021/08/05 05:18:26;;;;;;;3.28;2.83;;;;;;;;;;5100299;28;20176;-47
2021/08/05 05:20:53;;;;;;;5.68;3.10;;;;;;;;;;5098249;28;20193;-47
2021/08/05 05:23:19;;;;;;;4.57;2.92;;;;;;;;;;5085497;28;20182;-47
2021/08/05 05:25:46;;;;;;;10.52;3.17;;;;;;;;;;5099791;28;20204;-47
2021/08/05 05:28:12;;;;;;;8.43;3.42;;;;;;;;;;5097235;28;20181;-47
2021/08/05 05:30:39;;;;;;;4.47;3.03;;;;;;;;;;5082307;28;20178;-47
2021/08/05 05:33:05;;;;;;;3.70;2.60;;;;;;;;;;5087231;28;20207;-47
2021/08/05 05:35:31;;;;;;;4.88;2.97;;;;;;;;;;5111062;28;20514;-47
2021/08/05 05:37:58;;;;;;;6.57;3.42;;;;;;;;;;5098956;28;20533;-47
2021/08/05 05:40:24;;;;;;;6.85;3.28;;;;;;;;;;5102093;28;20193;-47
2021/08/05 05:42:53;;;;;;;6.65;3.30;;;;;;;;;;5089050;28;20291;-47
2021/08/05 05:45:19;;;;;;;7.88;3.33;;;;;;;;;;5089090;28;20181;-47
2021/08/05 05:47:45;;;;;;;5.10;3.38;;;;;;;;;;5097580;28;20178;-47
2021/08/05 05:50:12;;;;;;;5.47;3.63;;;;;;;;;;5097955;28;20493;-47
2021/08/05 05:52:39;;;;;;;3.90;2.95;;;;;;;;;;5099140;28;20220;-47
2021/08/05 05:55:06;;;;;;;8.35;3.17;;;;;;;;;;5091205;28;20203;-47
2021/08/05 05:57:33;;;;;;;3.90;3.50;;;;;;;;;;5094095;28;20205;-47
2021/08/05 05:59:59;;;;;;;5.78;2.95;;;;;;;;;;5097761;28;20170;-47
2021/08/05 06:02:25;;;;;;;4.45;2.92;;;;;;;;;;5097641;28;20174;-47
2021/08/05 06:04:51;;;;;;;8.63;3.40;;;;;;;;;;5113110;28;20231;-47
2021/08/05 06:07:17;;;;;;;4.35;3.20;;;;;;;;;;5117654;28;20177;-47
2021/08/05 06:09:42;;;;;;;7.75;3.20;;;;;;;;;;5104409;28;20213;-47
2021/08/05 06:12:09;;;;;;;4.15;3.15;;;;;;;;;;5097781;28;20202;-47
2021/08/05 06:14:35;;;;;;;3.97;3.00;;;;;;;;;;5088465;28;20274;-47
2021/08/05 06:17:01;;;;;;;7.38;3.00;;;;;;;;;;5076748;28;20190;-47
2021/08/05 06:19:27;;;;;;;4.38;3.50;;;;;;;;;;5086083;28;20192;-47
2021/08/05 06:21:53;;;;;;;3.60;2.80;;;;;;;;;;5097572;28;20170;-47
2021/08/05 06:24:19;;;;;;;4.68;2.63;;;;;;;;;;5095025;28;20520;-47
2021/08/05 06:26:46;;;;;;;5.90;3.33;;;;;;;;;;5079978;28;20189;-47
2021/08/05 06:29:11;;;;;;;4.00;3.40;;;;;;;;;;5080841;28;20197;-47
2021/08/05 06:31:37;;;;;;;4.75;3.30;;;;;;;;;;5097147;28;20216;-47
2021/08/05 06:34:04;;;;;;;5.70;3.42;;;;;;;;;;5103217;28;20184;-47
2021/08/05 06:36:31;;;;;;;3.42;3.10;;;;;;;;;;5117350;28;20180;-47
2021/08/05 06:38:57;;;;;;;4.70;3.03;;;;;;;;;;5093866;28;20174;-47
2021/08/05 06:41:23;;;;;;;8.90;3.50;;;;;;;;;;5102910;28;20165;-47
2021/08/05 06:43:49;;;;;;;6.07;3.10;;;;;;;;;;5087351;28;20178;-47
2021/08/05 06:46:15;;;;;;;5.45;3.03;;;;;;;;;;5096795;28;20201;-47
2021/08/05 06:48:41;;;;;;;11.80;3.05;;;;;;;;;;5096502;28;20555;-48
2021/08/05 06:51:10;;;;;;;8.20;3.13;;;;;;;;;;5095628;28;20170;-48
2021/08/05 06:53:35;;;;;;;12.20;4.05;;;;;;;;;;5092274;28;20226;-47
2021/08/05 06:56:02;;;;;;;6.72;3.38;;;;;;;;;;5103539;28;20205;-48
2021/08/05 06:58:29;;;;;;;8.65;3.30;;;;;;;;;;5096397;28;20176;-48
2021/08/05 07:00:55;;;;;;;9.15;3.90;;;;;;;;;;5076445;28;20167;-48
2021/08/05 07:03:21;;;;;;;12.15;3.08;;;;;;;;;;5097432;28;20181;-48
2021/08/05 07:05:47;;;;;;;9.32;3.50;;;;;;;;;;5100550;28;20208;-47
2021/08/05 07:08:13;;;;;;;8.32;3.30;;;;;;;;;;5114649;28;20187;-47
2021/08/05 07:10:39;;;;;;;12.75;3.17;;;;;;;;;;5096986;28;20193;-48
2021/08/05 07:13:05;;;;;;;6.90;3.05;;;;;;;;;;5095856;28;20202;-48
2021/08/05 07:15:31;;;;;;;8.27;3.05;;;;;;;;;;5080992;28;20171;-48
2021/08/05 07:17:57;;;;;;;5.57;3.10;;;;;;;;;;5075528;28;20187;-48
2021/08/05 07:20:23;;;;;;;4.95;2.78;;;;;;;;;;5076218;28;20617;-48
2021/08/05 07:22:49;;;;;;;6.47;3.53;;;;;;;;;;5081021;28;20265;-48
2021/08/05 07:25:16;;;;;;;5.05;3.08;;;;;;;;;;5107156;28;20189;-48
2021/08/05 07:27:43;;;;;;;5.55;2.72;;;;;;;;;;5095698;28;20223;-48
2021/08/05 07:30:10;;;;;;;4.75;3.72;;;;;;;;;;5083844;28;20201;-48
2021/08/05 07:32:36;;;;;;;4.22;3.20;;;;;;;;;;5087575;28;20671;-48
2021/08/05 07:35:03;;;;;;;4.65;2.92;;;;;;;;;;5103065;28;20185;-48
2021/08/05 07:37:29;;;;;;;6.40;3.40;;;;;;;;;;5088633;28;20185;-48
2021/08/05 07:39:55;;;;;;;4.88;3.53;;;;;;;;;;5108296;28;20466;-48
2021/08/05 07:42:21;;;;;;;5.03;3.28;;;;;;;;;;5085870;28;20179;-48
2021/08/05 07:44:48;;;;;;;4.05;2.95;;;;;;;;;;5084385;28;20506;-48
2021/08/05 07:47:14;;;;;;;5.07;3.20;;;;;;;;;;5095446;28;20555;-48
2021/08/05 07:49:40;;;;;;;5.22;3.40;;;;;;;;;;5096034;28;20546;-48
2021/08/05 07:52:06;;;;;;;3.95;3.00;;;;;;;;;;5096378;28;20640;-47
2021/08/05 07:54:33;;;;;;;4.25;3.28;;;;;;;;;;5108089;28;20458;-47
2021/08/05 07:56:59;;;;;;;3.70;2.88;;;;;;;;;;5095163;28;20184;-47
2021/08/05 07:59:25;;;;;;;3.25;2.92;;;;;;;;;;5087153;28;20258;-47
2021/08/05 08:01:51;;;;;;;3.00;2.42;;;;;;;;;;5080296;28;20185;-47
2021/08/05 08:04:17;;;;;;;6.93;3.10;;;;;;;;;;5104350;28;20181;-47
2021/08/05 08:06:43;;;;;;;4.03;2.90;;;;;;;;;;5115807;28;20492;-47
2021/08/05 08:09:09;;;;;;;3.17;2.60;;;;;;;;;;5106521;28;20253;-48
2021/08/05 08:11:35;;;;;;;3.22;2.83;;;;;;;;;;5094366;28;20181;-48
2021/08/05 08:14:01;;;;;;;5.28;4.78;;;;;;;;;;5094354;28;20174;-47
2021/08/05 08:16:27;;;;;;;4.97;3.90;;;;;;;;;;5093606;28;20553;-47
2021/08/05 08:18:54;;;;;;;4.65;3.50;;;;;;;;;;5094689;28;20176;-48
2021/08/05 08:21:20;;;;;;;3.90;3.50;;;;;;;;;;5094602;28;20162;-47
2021/08/05 08:23:46;;;;;;;4.45;3.75;;;;;;;;;;5102647;28;20246;-48
2021/08/05 08:26:13;;;;;;;4.50;3.45;;;;;;;;;;5080893;28;20194;-48
2021/08/05 08:28:39;;;;;;;3.75;3.42;;;;;;;;;;5074421;28;20261;-48
2021/08/05 08:31:05;;;;;;;4.80;3.30;;;;;;;;;;5094645;28;20533;-48
2021/08/05 08:33:31;;;;;;;4.13;3.50;;;;;;;;;;5078750;28;20229;-48
2021/08/05 08:35:57;;;;;;;3.28;3.00;;;;;;;;;;5094492;28;20572;-48
2021/08/05 08:38:24;;;;;;;3.40;3.10;;;;;;;;;;5096159;28;20169;-48
2021/08/05 08:40:50;;;;;;;3.72;2.90;;;;;;;;;;5105168;28;20176;-48
2021/08/05 08:43:16;;;;;;;6.20;3.47;;;;;;;;;;5078507;28;20182;-48
2021/08/05 08:45:42;;;;;;;5.25;4.07;;;;;;;;;;5091305;28;20182;-48
2021/08/05 08:48:10;;;;;;;4.30;3.47;;;;;;;;;;5103714;28;20196;-47
2021/08/05 08:50:36;;;;;;;3.72;3.42;;;;;;;;;;5109979;28;20542;-48
2021/08/05 08:53:04;;;;;;;4.28;3.80;;;;;;;;;;5093973;28;20341;-48
2021/08/05 08:55:30;;;;;;;5.57;4.60;;;;;;;;;;5083387;28;20169;-48
2021/08/05 08:57:57;;;;;;;3.88;3.58;;;;;;;;;;5093745;28;20270;-47
2021/08/05 09:00:23;;;;;;;4.57;4.18;;;;;;;;;;5094673;28;20174;-47
2021/08/05 09:02:49;;;;;;;4.50;4.18;;;;;;;;;;5082535;28;20577;-48
2021/08/05 09:05:16;;;;;;;3.63;3.33;;;;;;;;;;5105482;28;20183;-48
2021/08/05 09:07:44;;;;;;;3.88;3.58;;;;;;;;;;5104917;28;20177;-48
2021/08/05 09:10:10;;;;;;;4.30;3.60;;;;;;;;;;5099053;28;20170;-47
2021/08/05 09:12:36;;;;;;;4.00;3.60;;;;;;;;;;5095113;28;20201;-47
2021/08/05 09:15:03;;;;;;;4.00;3.70;;;;;;;;;;5114808;28;20173;-47
2021/08/05 09:17:29;;;;;;;3.80;3.50;;;;;;;;;;5084857;28;20479;-47
2021/08/05 09:19:56;;;;;;;4.88;3.95;;;;;;;;;;5080988;28;20585;-48
2021/08/05 09:22:33;;;;;;;4.07;3.78;;;;;;;;;;5096027;28;20205;-48
2021/08/05 09:24:59;;;;;;;4.10;3.70;;;;;;;;;;5105999;28;20257;-48
2021/08/05 09:27:34;;;;;;;5.57;3.70;;;;;;;;;;5099823;28;20190;-48
2021/08/05 09:30:00;;;;;;;3.30;3.10;;;;;;;;;;5102384;28;20188;-48
2021/08/05 09:32:27;;;;;;;4.30;3.92;;;;;;;;;;5105328;28;20204;-48
2021/08/05 09:35:14;;;;;;;3.72;3.42;;;;;;;;;;5092368;28;20177;-48
2021/08/05 09:37:40;;;;;;;4.95;3.40;;;;;;;;;;5090544;28;20190;-48
2021/08/05 09:40:10;;;;;;;3.70;3.40;;;;;;;;;;5097420;28;20600;-48
2021/08/05 09:42:36;;;;;;;4.00;3.40;;;;;;;;;;5088570;28;20226;-48
2021/08/05 09:45:02;;;;;;;3.92;3.63;;;;;;;;;;5086127;28;20174;-48
2021/08/05 09:47:28;;;;;;;4.38;3.97;;;;;;;;;;5076016;28;20193;-48
2021/08/05 09:49:56;;;;;;;5.57;4.18;;;;;;;;;;5066590;28;20190;-48
2021/08/05 09:52:24;;;;;;;3.92;3.63;;;;;;;;;;5091452;28;20213;-48
2021/08/05 09:54:51;;;;;;;4.78;3.67;;;;;;;;;;5104901;28;20169;-48
2021/08/05 09:57:24;;;;;;;3.72;3.40;;;;;;;;;;5096095;28;20190;-48
2021/08/05 09:59:54;;;;;;;3.00;2.80;;;;;;;;;;5088799;28;20184;-48
2021/08/05 10:02:21;;;;;;;4.72;3.22;;;;;;;;;;5097471;28;20201;-48
2021/08/05 10:04:48;;;;;;;3.80;3.47;;;;;;;;;;5108109;28;20714;-48
2021/08/05 10:07:14;;;;;;;3.65;3.35;;;;;;;;;;5106913;28;20197;-48
2021/08/05 10:09:41;;;;;;;3.75;3.45;;;;;;;;;;5091921;28;20181;-47
2021/08/05 10:12:10;;;;;;;5.32;3.50;;;;;;;;;;5096787;28;20201;-48
2021/08/05 10:14:36;;;;;;;3.20;3.00;;;;;;;;;;5091809;28;20166;-48
2021/08/05 10:17:04;;;;;;;4.18;3.47;;;;;;;;;;5094093;28;20281;-48
2021/08/05 10:19:36;;;;;;;4.65;4.03;;;;;;;;;;5077127;28;20166;-48
2021/08/05 10:22:02;;;;;;;4.85;4.18;;;;;;;;;;5076843;28;20171;-48
2021/08/05 10:24:28;;;;;;;4.00;3.60;;;;;;;;;;5102729;28;20185;-48
2021/08/05 10:26:54;;;;;;;4.53;4.22;;;;;;;;;;5085871;28;20215;-48
2021/08/05 10:29:21;;;;;;;5.55;3.90;;;;;;;;;;5074205;28;20174;-48
2021/08/05 10:31:47;;;;;;;4.32;3.60;;;;;;;;;;5076854;28;20167;-48
2021/08/05 10:34:13;;;;;;;5.05;3.95;;;;;;;;;;5089156;28;20184;-48
2021/08/05 10:36:40;;;;;;;4.70;4.30;;;;;;;;;;5117473;28;20445;-48
2021/08/05 10:39:06;;;;;;;4.10;3.80;;;;;;;;;;5103705;28;20184;-47
2021/08/05 10:41:32;;;;;;;4.05;3.75;;;;;;;;;;5101551;28;20178;-47
2021/08/05 10:43:59;;;;;;;4.55;4.18;;;;;;;;;;5094734;28;20178;-48
2021/08/05 10:46:33;;;;;;;4.63;3.53;;;;;;;;;;5076583;28;20173;-47
2021/08/05 10:48:59;;;;;;;4.05;3.72;;;;;;;;;;5093549;28;20170;-48
2021/08/05 10:51:25;;;;;;;4.10;3.80;;;;;;;;;;5115958;28;20181;-47
2021/08/05 10:53:51;;;;;;;5.05;3.92;;;;;;;;;;5111064;28;20193;-48
2021/08/05 10:56:20;;;;;;;4.10;3.80;;;;;;;;;;5096164;28;20181;-47
2021/08/05 10:59:12;;;;;;;4.93;4.30;;;;;;;;;;5095042;28;20173;-48
2021/08/05 11:01:47;;;;;;;3.53;3.22;;;;;;;;;;5072711;28;20187;-48
2021/08/05 11:04:32;;;;;;;4.20;3.90;;;;;;;;;;5108398;28;20593;-48
2021/08/05 11:07:18;;;;;;;4.40;4.10;;;;;;;;;;5114025;28;20285;-47
2021/08/05 11:09:45;;;;;;;4.20;3.90;;;;;;;;;;5094687;28;20231;-48
2021/08/05 11:12:30;;;;;;;4.18;3.88;;;;;;;;;;5096122;28;20194;-48
2021/08/05 11:14:56;;;;;;;4.20;3.90;;;;;;;;;;5086320;28;20245;-48
2021/08/05 11:17:22;;;;;;;4.05;3.75;;;;;;;;;;5078886;28;20193;-48
2021/08/05 11:20:08;;;;;;;4.00;3.60;;;;;;;;;;5094538;28;20181;-48
2021/08/05 11:22:34;;;;;;;4.93;4.40;;;;;;;;;;5087761;28;20189;-48
2021/08/05 11:25:00;;;;;;;4.72;4.32;;;;;;;;;;5108557;28;20216;-48
2021/08/05 11:27:27;;;;;;;3.90;3.60;;;;;;;;;;5090954;28;20178;-48
2021/08/05 11:29:53;;;;;;;4.30;4.00;;;;;;;;;;5086153;28;20181;-48
2021/08/05 11:32:22;;;;;;;4.35;3.95;;;;;;;;;;5095678;28;20230;-48
2021/08/05 11:34:55;;;;;;;4.40;4.00;;;;;;;;;;5095743;28;20178;-48
2021/08/05 11:37:21;;;;;;;5.03;3.85;;;;;;;;;;5092032;28;20194;-48
2021/08/05 11:39:51;;;;;;;3.97;3.67;;;;;;;;;;5105582;28;20486;-49
2021/08/05 11:42:21;;;;;;;4.20;3.90;;;;;;;;;;5095620;28;20211;-48
2021/08/05 11:44:51;;;;;;;4.13;3.83;;;;;;;;;;5087124;28;20178;-48
2021/08/05 11:47:25;;;;;;;4.78;4.38;;;;;;;;;;5077120;28;20182;-48
2021/08/05 11:49:51;;;;;;;3.95;3.65;;;;;;;;;;5095513;28;20178;-48
2021/08/05 11:52:18;;;;;;;5.32;4.05;;;;;;;;;;5095567;28;20284;-48
2021/08/05 11:54:50;;;;;;;4.63;4.32;;;;;;;;;;5108120;28;20244;-48
2021/08/05 11:57:17;;;;;;;4.95;4.55;;;;;;;;;;5112557;28;20177;-48
2021/08/05 11:59:43;;;;;;;4.43;4.03;;;;;;;;;;5087275;28;20241;-48
2021/08/05 12:02:10;;;;;;;4.45;3.63;;;;;;;;;;5075244;28;20301;-48
2021/08/05 12:04:36;;;;;;;5.10;4.22;;;;;;;;;;5106668;28;20432;-48
2021/08/05 12:07:17;;;;;;;4.78;3.63;;;;;;;;;;5114440;28;20528;-48
2021/08/05 12:09:43;;;;;;;5.53;4.07;;;;;;;;;;5094815;28;20209;-48
2021/08/05 12:12:09;;;;;;;3.85;3.55;;;;;;;;;;5095325;28;20481;-48
2021/08/05 12:14:36;;;;;;;4.05;3.30;;;;;;;;;;5095323;28;20174;-48
2021/08/05 12:17:02;;;;;;;3.85;3.22;;;;;;;;;;5094710;28;20257;-48
2021/08/05 12:19:32;;;;;;;3.42;3.20;;;;;;;;;;5075200;28;20470;-48
2021/08/05 12:21:58;;;;;;;3.15;2.95;;;;;;;;;;5074959;28;20579;-48
2021/08/05 12:24:26;;;;;;;3.08;2.88;;;;;;;;;;5099256;28;20246;-48
2021/08/05 12:26:59;;;;;;;3.15;2.95;;;;;;;;;;5097176;28;20176;-48
2021/08/05 12:29:25;;;;;;;3.35;3.05;;;;;;;;;;5080834;28;20173;-48
2021/08/05 12:31:51;;;;;;;3.45;3.20;;;;;;;;;;5094917;28;20552;-48
2021/08/05 12:34:18;;;;;;;3.15;2.95;;;;;;;;;;5106029;28;20180;-48
2021/08/05 12:36:45;;;;;;;2.92;2.72;;;;;;;;;;5113163;28;20747;-49
2021/08/05 12:39:11;;;;;;;3.10;2.90;;;;;;;;;;5094675;28;20500;-48
2021/08/05 12:41:51;;;;;;;3.03;2.83;;;;;;;;;;5095861;28;20203;-48
2021/08/05 12:44:18;;;;;;;3.08;2.88;;;;;;;;;;5099382;28;20183;-48
2021/08/05 12:46:45;;;;;;;2.90;2.70;;;;;;;;;;5094562;28;20245;-48
2021/08/05 12:49:12;;;;;;;3.53;3.22;;;;;;;;;;5061737;28;20190;-48
2021/08/05 12:51:38;;;;;;;2.63;2.42;;;;;;;;;;5094455;28;20169;-48
2021/08/05 12:54:20;;;;;;;3.00;2.80;;;;;;;;;;5096578;28;20200;-48
2021/08/05 12:56:54;;;;;;;2.80;2.60;;;;;;;;;;5103617;28;20185;-48
2021/08/05 12:59:22;;;;;;;3.15;2.55;;;;;;;;;;5076227;28;20220;-49
2021/08/05 13:02:04;;;;;;;2.50;2.30;;;;;;;;;;5089293;28;20556;-48
2021/08/05 13:04:32;;;;;;;2.97;2.78;;;;;;;;;;5102513;28;20188;-48
2021/08/05 13:06:58;;;;;;;2.85;2.65;;;;;;;;;;5099114;28;20176;-48
2021/08/05 13:09:28;;;;;;;2.53;2.40;;;;;;;;;;5105354;28;20248;-48
2021/08/05 13:11:55;;;;;;;3.03;2.60;;;;;;;;;;5096286;28;20253;-48
2021/08/05 13:14:33;;;;;;;2.35;2.13;;;;;;;;;;5089619;28;20444;-48
2021/08/05 13:17:16;;;;;;;2.92;2.30;;;;;;;;;;5073856;28;20587;-48
2021/08/05 13:19:51;;;;;;;2.90;2.60;;;;;;;;;;5094374;28;20174;-48
2021/08/05 13:22:17;;;;;;;2.38;2.20;;;;;;;;;;5094555;28;20220;-48
2021/08/05 13:24:56;;;;;;;3.20;2.22;;;;;;;;;;5111062;28;20193;-48
2021/08/05 13:27:23;;;;;;;2.70;2.38;;;;;;;;;;5097204;28;20210;-48
2021/08/05 13:29:51;;;;;;;3.97;2.10;;;;;;;;;;5069403;28;20173;-48
2021/08/05 13:32:18;;;;;;;2.85;2.65;;;;;;;;;;5098271;28;20185;-48
2021/08/05 13:34:59;;;;;;;2.58;2.30;;;;;;;;;;5111709;28;20477;-48
2021/08/05 13:37:30;;;;;;;2.50;2.30;;;;;;;;;;5116383;28;20600;-48
2021/08/05 13:39:57;;;;;;;2.20;2.10;;;;;;;;;;5087790;28;20171;-48
2021/08/05 13:42:24;;;;;;;2.00;1.90;;;;;;;;;;5081324;28;20224;-48
2021/08/05 13:44:50;;;;;;;2.60;2.40;;;;;;;;;;5086535;28;20536;-48
2021/08/05 13:47:17;;;;;;;2.35;2.20;;;;;;;;;;5102537;28;20173;-48
2021/08/05 13:49:44;;;;;;;2.60;2.40;;;;;;;;;;5098717;28;20185;-48
2021/08/05 13:52:10;;;;;;;6.07;2.33;;;;;;;;;;5098591;28;20197;-48
2021/08/05 13:54:37;;;;;;;3.15;2.47;;;;;;;;;;5101787;28;20182;-48
2021/08/05 13:57:04;;;;;;;3.25;2.20;;;;;;;;;;5104615;28;20177;-48
2021/08/05 13:59:30;;;;;;;5.63;2.80;;;;;;;;;;5098602;28;20174;-48
2021/08/05 14:01:57;;;;;;;7.72;2.83;;;;;;;;;;5107642;28;20193;-48
2021/08/05 14:04:23;;;;;;;3.80;2.58;;;;;;;;;;5101881;28;20252;-48
2021/08/05 14:06:49;;;;;;;3.00;2.70;;;;;;;;;;5094610;28;20173;-48
2021/08/05 14:09:16;;;;;;;4.22;3.00;;;;;;;;;;5101702;28;20205;-48
2021/08/05 14:11:42;;;;;;;4.15;3.33;;;;;;;;;;5100670;28;20183;-48
2021/08/05 14:14:10;;;;;;;10.35;3.35;;;;;;;;;;5100353;28;20174;-48
2021/08/05 14:16:38;;;;;;;5.43;3.30;;;;;;;;;;5100514;28;20261;-48
2021/08/05 14:19:04;;;;;;;3.20;2.90;;;;;;;;;;5078575;28;20178;-48
2021/08/05 14:21:30;;;;;;;8.25;3.10;;;;;;;;;;5103307;28;20178;-48
2021/08/05 14:23:56;;;;;;;3.47;3.17;;;;;;;;;;5114009;28;20188;-48
2021/08/05 14:26:22;;;;;;;3.40;3.10;;;;;;;;;;5106890;28;20174;-48
2021/08/05 14:28:48;;;;;;;3.38;3.08;;;;;;;;;;5087581;28;20235;-48
2021/08/05 14:31:15;;;;;;;3.58;2.88;;;;;;;;;;5100788;28;20189;-48
2021/08/05 14:33:41;;;;;;;3.80;2.92;;;;;;;;;;5089518;28;20204;-48
2021/08/05 14:36:07;;;;;;;3.08;2.63;;;;;;;;;;5095832;28;20268;-48
2021/08/05 14:38:33;;;;;;;3.20;2.90;;;;;;;;;;5101897;28;20181;-48
2021/08/05 14:40:59;;;;;;;3.75;2.90;;;;;;;;;;5100129;28;20540;-48
2021/08/05 14:43:25;;;;;;;3.53;2.83;;;;;;;;;;5105983;28;20178;-48